sensor_id;sensor_type;location;lat;lon;timestamp;temperature;humidity
38860;DHT22;24609;48.316;16.174;2023-07-28T00:01:38;20.00;85.30
38860;DHT22;24609;48.316;16.174;2023-07-28T00:04:04;19.90;86.10
38860;DHT22;24609;48.316;16.174;2023-07-28T00:06:32;19.90;86.90
38860;DHT22;24609;48.316;16.174;2023-07-28T00:08:58;19.90;87.30
38860;DHT22;24609;48.316;16.174;2023-07-28T00:11:24;19.90;87.90
38860;DHT22;24609;48.316;16.174;2023-07-28T00:13:51;19.90;88.60
38860;DHT22;24609;48.316;16.174;2023-07-28T00:16:17;19.90;89.10
38860;DHT22;24609;48.316;16.174;2023-07-28T00:18:42;19.90;89.40
38860;DHT22;24609;48.316;16.174;2023-07-28T00:21:08;19.80;90.00
38860;DHT22;24609;48.316;16.174;2023-07-28T00:23:34;19.80;90.30
38860;DHT22;24609;48.316;16.174;2023-07-28T00:25:59;19.80;90.50
38860;DHT22;24609;48.316;16.174;2023-07-28T00:28:25;19.80;90.70
38860;DHT22;24609;48.316;16.174;2023-07-28T00:30:51;19.80;90.80
38860;DHT22;24609;48.316;16.174;2023-07-28T00:33:17;19.80;91.00
38860;DHT22;24609;48.316;16.174;2023-07-28T00:35:43;19.80;91.20
38860;DHT22;24609;48.316;16.174;2023-07-28T00:38:09;19.90;91.20
38860;DHT22;24609;48.316;16.174;2023-07-28T00:40:37;19.80;91.40
38860;DHT22;24609;48.316;16.174;2023-07-28T00:43:03;19.80;91.50
38860;DHT22;24609;48.316;16.174;2023-07-28T00:45:30;19.90;91.50
38860;DHT22;24609;48.316;16.174;2023-07-28T00:47:57;19.80;92.00
38860;DHT22;24609;48.316;16.174;2023-07-28T00:50:24;19.90;92.30
38860;DHT22;24609;48.316;16.174;2023-07-28T00:52:50;19.80;92.70
38860;DHT22;24609;48.316;16.174;2023-07-28T00:55:16;19.70;94.50
38860;DHT22;24609;48.316;16.174;2023-07-28T00:57:42;19.70;96.00
38860;DHT22;24609;48.316;16.174;2023-07-28T01:00:09;19.70;97.40
38860;DHT22;24609;48.316;16.174;2023-07-28T01:02:35;19.70;98.00
38860;DHT22;24609;48.316;16.174;2023-07-28T01:05:01;19.60;98.40
38860;DHT22;24609;48.316;16.174;2023-07-28T01:07:38;19.60;99.20
38860;DHT22;24609;48.316;16.174;2023-07-28T01:10:10;19.60;99.90
38860;DHT22;24609;48.316;16.174;2023-07-28T01:12:35;19.60;99.90
38860;DHT22;24609;48.316;16.174;2023-07-28T01:15:01;19.60;99.90
38860;DHT22;24609;48.316;16.174;2023-07-28T01:17:27;19.60;99.90
38860;DHT22;24609;48.316;16.174;2023-07-28T01:19:53;19.60;99.90
38860;DHT22;24609;48.316;16.174;2023-07-28T01:25:32;19.50;99.90
38860;DHT22;24609;48.316;16.174;2023-07-28T01:28:00;19.50;99.90
38860;DHT22;24609;48.316;16.174;2023-07-28T01:30:27;19.50;99.90
38860;DHT22;24609;48.316;16.174;2023-07-28T01:32:56;19.40;99.90
38860;DHT22;24609;48.316;16.174;2023-07-28T01:35:22;19.30;99.90
38860;DHT22;24609;48.316;16.174;2023-07-28T01:37:48;19.30;99.90
38860;DHT22;24609;48.316;16.174;2023-07-28T01:40:19;19.20;99.90
38860;DHT22;24609;48.316;16.174;2023-07-28T01:42:45;19.30;99.90
38860;DHT22;24609;48.316;16.174;2023-07-28T01:45:11;19.30;99.90
38860;DHT22;24609;48.316;16.174;2023-07-28T01:47:37;19.30;99.90
38860;DHT22;24609;48.316;16.174;2023-07-28T01:50:02;19.30;99.90
38860;DHT22;24609;48.316;16.174;2023-07-28T01:52:28;19.30;99.90
38860;DHT22;24609;48.316;16.174;2023-07-28T01:54:54;19.30;99.90
38860;DHT22;24609;48.316;16.174;2023-07-28T01:57:19;19.30;99.90
38860;DHT22;24609;48.316;16.174;2023-07-28T01:59:45;19.40;99.90
38860;DHT22;24609;48.316;16.174;2023-07-28T02:02:11;19.30;99.90
38860;DHT22;24609;48.316;16.174;2023-07-28T02:04:36;19.30;99.90
38860;DHT22;24609;48.316;16.174;2023-07-28T02:07:02;19.30;99.90
38860;DHT22;24609;48.316;16.174;2023-07-28T02:09:28;19.30;99.90
38860;DHT22;24609;48.316;16.174;2023-07-28T02:11:53;19.30;99.90
38860;DHT22;24609;48.316;16.174;2023-07-28T02:14:19;19.20;99.90
38860;DHT22;24609;48.316;16.174;2023-07-28T02:16:45;19.20;99.90
38860;DHT22;24609;48.316;16.174;2023-07-28T02:19:10;19.10;99.90
38860;DHT22;24609;48.316;16.174;2023-07-28T02:21:36;19.00;99.90
38860;DHT22;24609;48.316;16.174;2023-07-28T02:24:02;19.00;99.90
38860;DHT22;24609;48.316;16.174;2023-07-28T02:26:27;18.90;99.90
38860;DHT22;24609;48.316;16.174;2023-07-28T02:28:53;18.70;99.90
38860;DHT22;24609;48.316;16.174;2023-07-28T02:31:19;18.60;99.90
38860;DHT22;24609;48.316;16.174;2023-07-28T02:33:45;18.60;99.90
38860;DHT22;24609;48.316;16.174;2023-07-28T02:36:10;18.60;99.90
38860;DHT22;24609;48.316;16.174;2023-07-28T02:38:36;18.60;99.90
38860;DHT22;24609;48.316;16.174;2023-07-28T02:41:02;18.70;99.90
38860;DHT22;24609;48.316;16.174;2023-07-28T02:43:30;18.80;99.90
38860;DHT22;24609;48.316;16.174;2023-07-28T02:45:57;18.80;99.90
38860;DHT22;24609;48.316;16.174;2023-07-28T02:48:23;18.90;99.90
38860;DHT22;24609;48.316;16.174;2023-07-28T02:50:52;18.90;99.90
38860;DHT22;24609;48.316;16.174;2023-07-28T02:53:18;19.10;99.90
38860;DHT22;24609;48.316;16.174;2023-07-28T02:55:44;19.30;99.90
38860;DHT22;24609;48.316;16.174;2023-07-28T02:58:11;19.40;99.90
38860;DHT22;24609;48.316;16.174;2023-07-28T03:00:38;19.50;99.90
38860;DHT22;24609;48.316;16.174;2023-07-28T03:03:04;19.60;99.90
38860;DHT22;24609;48.316;16.174;2023-07-28T03:05:33;19.60;99.90
38860;DHT22;24609;48.316;16.174;2023-07-28T03:07:59;19.60;99.90
38860;DHT22;24609;48.316;16.174;2023-07-28T03:10:25;19.70;99.90
38860;DHT22;24609;48.316;16.174;2023-07-28T03:12:51;19.70;99.90
38860;DHT22;24609;48.316;16.174;2023-07-28T03:15:16;19.70;99.90
38860;DHT22;24609;48.316;16.174;2023-07-28T03:17:42;19.80;99.90
38860;DHT22;24609;48.316;16.174;2023-07-28T03:20:08;19.90;99.90
38860;DHT22;24609;48.316;16.174;2023-07-28T03:22:34;19.80;99.90
38860;DHT22;24609;48.316;16.174;2023-07-28T03:24:59;19.80;99.90
38860;DHT22;24609;48.316;16.174;2023-07-28T03:27:25;19.90;99.90
38860;DHT22;24609;48.316;16.174;2023-07-28T03:29:51;19.90;99.90
38860;DHT22;24609;48.316;16.174;2023-07-28T03:32:17;20.00;99.90
38860;DHT22;24609;48.316;16.174;2023-07-28T03:34:42;20.00;99.90
38860;DHT22;24609;48.316;16.174;2023-07-28T03:37:08;19.90;99.90
38860;DHT22;24609;48.316;16.174;2023-07-28T03:39:34;20.00;99.90
38860;DHT22;24609;48.316;16.174;2023-07-28T03:42:00;20.00;99.90
38860;DHT22;24609;48.316;16.174;2023-07-28T03:44:26;20.00;99.90
38860;DHT22;24609;48.316;16.174;2023-07-28T03:46:52;20.10;99.70
38860;DHT22;24609;48.316;16.174;2023-07-28T03:49:17;20.20;99.00
38860;DHT22;24609;48.316;16.174;2023-07-28T03:51:43;20.20;98.90
38860;DHT22;24609;48.316;16.174;2023-07-28T03:54:08;20.20;98.60
38860;DHT22;24609;48.316;16.174;2023-07-28T03:56:34;20.30;98.00
38860;DHT22;24609;48.316;16.174;2023-07-28T03:59:00;20.30;97.60
38860;DHT22;24609;48.316;16.174;2023-07-28T04:01:25;20.30;98.30
38860;DHT22;24609;48.316;16.174;2023-07-28T04:03:51;20.00;99.10
38860;DHT22;24609;48.316;16.174;2023-07-28T04:06:17;19.90;99.80
38860;DHT22;24609;48.316;16.174;2023-07-28T04:08:42;19.90;99.90
38860;DHT22;24609;48.316;16.174;2023-07-28T04:11:08;19.80;99.90
38860;DHT22;24609;48.316;16.174;2023-07-28T04:13:35;19.70;99.70
38860;DHT22;24609;48.316;16.174;2023-07-28T04:16:00;19.80;99.80
38860;DHT22;24609;48.316;16.174;2023-07-28T04:18:26;19.80;99.90
38860;DHT22;24609;48.316;16.174;2023-07-28T04:20:53;19.80;99.90
38860;DHT22;24609;48.316;16.174;2023-07-28T04:23:18;19.90;99.30
38860;DHT22;24609;48.316;16.174;2023-07-28T04:25:44;20.00;97.60
38860;DHT22;24609;48.316;16.174;2023-07-28T04:28:10;20.20;97.20
38860;DHT22;24609;48.316;16.174;2023-07-28T04:30:35;20.30;97.00
38860;DHT22;24609;48.316;16.174;2023-07-28T04:33:01;20.50;96.20
38860;DHT22;24609;48.316;16.174;2023-07-28T04:35:29;20.40;98.40
38860;DHT22;24609;48.316;16.174;2023-07-28T04:37:55;20.20;99.90
38860;DHT22;24609;48.316;16.174;2023-07-28T04:40:20;20.20;99.90
38860;DHT22;24609;48.316;16.174;2023-07-28T04:42:46;19.90;99.90
38860;DHT22;24609;48.316;16.174;2023-07-28T04:45:12;19.90;99.90
38860;DHT22;24609;48.316;16.174;2023-07-28T04:47:37;19.80;99.90
38860;DHT22;24609;48.316;16.174;2023-07-28T04:50:04;19.70;99.90
38860;DHT22;24609;48.316;16.174;2023-07-28T04:52:29;19.70;99.90
38860;DHT22;24609;48.316;16.174;2023-07-28T04:54:55;19.70;99.90
38860;DHT22;24609;48.316;16.174;2023-07-28T04:57:21;19.90;99.90
38860;DHT22;24609;48.316;16.174;2023-07-28T04:59:46;20.10;99.90
38860;DHT22;24609;48.316;16.174;2023-07-28T05:02:12;20.20;99.90
38860;DHT22;24609;48.316;16.174;2023-07-28T05:04:38;20.20;99.90
38860;DHT22;24609;48.316;16.174;2023-07-28T05:07:04;20.30;99.90
38860;DHT22;24609;48.316;16.174;2023-07-28T05:09:30;20.30;99.90
38860;DHT22;24609;48.316;16.174;2023-07-28T05:11:55;20.20;99.90
38860;DHT22;24609;48.316;16.174;2023-07-28T05:14:21;20.20;99.90
38860;DHT22;24609;48.316;16.174;2023-07-28T05:16:47;20.10;99.90
38860;DHT22;24609;48.316;16.174;2023-07-28T05:19:13;19.80;99.90
38860;DHT22;24609;48.316;16.174;2023-07-28T05:21:38;19.70;99.90
38860;DHT22;24609;48.316;16.174;2023-07-28T05:24:04;19.80;99.90
38860;DHT22;24609;48.316;16.174;2023-07-28T05:26:30;19.80;99.90
38860;DHT22;24609;48.316;16.174;2023-07-28T05:28:56;19.90;99.90
38860;DHT22;24609;48.316;16.174;2023-07-28T05:31:21;19.90;99.90
38860;DHT22;24609;48.316;16.174;2023-07-28T05:33:47;19.90;99.90
38860;DHT22;24609;48.316;16.174;2023-07-28T05:36:13;19.90;99.90
38860;DHT22;24609;48.316;16.174;2023-07-28T05:38:38;20.00;99.90
38860;DHT22;24609;48.316;16.174;2023-07-28T05:41:04;20.20;99.90
38860;DHT22;24609;48.316;16.174;2023-07-28T05:43:31;20.30;99.90
38860;DHT22;24609;48.316;16.174;2023-07-28T05:45:58;20.40;99.90
38860;DHT22;24609;48.316;16.174;2023-07-28T05:48:24;20.50;99.90
38860;DHT22;24609;48.316;16.174;2023-07-28T05:50:49;20.70;99.90
38860;DHT22;24609;48.316;16.174;2023-07-28T05:53:17;20.80;99.90
38860;DHT22;24609;48.316;16.174;2023-07-28T05:55:42;21.00;99.90
38860;DHT22;24609;48.316;16.174;2023-07-28T05:58:08;21.00;99.90
38860;DHT22;24609;48.316;16.174;2023-07-28T06:00:34;20.80;99.90
38860;DHT22;24609;48.316;16.174;2023-07-28T06:02:59;20.80;99.90
38860;DHT22;24609;48.316;16.174;2023-07-28T06:05:25;21.20;99.90
38860;DHT22;24609;48.316;16.174;2023-07-28T06:07:51;21.80;99.90
38860;DHT22;24609;48.316;16.174;2023-07-28T06:10:16;22.00;99.90
38860;DHT22;24609;48.316;16.174;2023-07-28T06:12:43;22.30;99.90
38860;DHT22;24609;48.316;16.174;2023-07-28T06:15:09;22.30;99.90
38860;DHT22;24609;48.316;16.174;2023-07-28T06:17:34;22.50;99.90
38860;DHT22;24609;48.316;16.174;2023-07-28T06:20:00;22.80;99.90
38860;DHT22;24609;48.316;16.174;2023-07-28T06:22:26;22.90;99.90
38860;DHT22;24609;48.316;16.174;2023-07-28T06:24:51;23.40;99.90
38860;DHT22;24609;48.316;16.174;2023-07-28T06:27:17;23.20;99.80
38860;DHT22;24609;48.316;16.174;2023-07-28T06:29:43;22.90;99.90
38860;DHT22;24609;48.316;16.174;2023-07-28T06:32:08;22.70;99.90
38860;DHT22;24609;48.316;16.174;2023-07-28T06:34:34;23.60;99.90
38860;DHT22;24609;48.316;16.174;2023-07-28T06:36:59;24.90;96.20
38860;DHT22;24609;48.316;16.174;2023-07-28T06:39:25;25.30;94.70
38860;DHT22;24609;48.316;16.174;2023-07-28T06:41:51;25.70;90.30
38860;DHT22;24609;48.316;16.174;2023-07-28T06:44:16;27.10;89.40
38860;DHT22;24609;48.316;16.174;2023-07-28T06:46:43;27.10;78.50
38860;DHT22;24609;48.316;16.174;2023-07-28T06:49:08;28.40;77.90
38860;DHT22;24609;48.316;16.174;2023-07-28T06:51:34;29.90;69.00
38860;DHT22;24609;48.316;16.174;2023-07-28T06:54:00;29.00;61.20
38860;DHT22;24609;48.316;16.174;2023-07-28T06:56:25;29.00;63.70
38860;DHT22;24609;48.316;16.174;2023-07-28T06:58:51;28.80;63.00
38860;DHT22;24609;48.316;16.174;2023-07-28T07:01:17;27.80;66.30
38860;DHT22;24609;48.316;16.174;2023-07-28T07:03:43;28.40;62.70
38860;DHT22;24609;48.316;16.174;2023-07-28T07:06:09;29.30;62.30
38860;DHT22;24609;48.316;16.174;2023-07-28T07:08:35;28.60;57.90
38860;DHT22;24609;48.316;16.174;2023-07-28T07:11:00;28.00;59.40
38860;DHT22;24609;48.316;16.174;2023-07-28T07:13:26;27.20;59.50
38860;DHT22;24609;48.316;16.174;2023-07-28T07:15:52;26.90;60.90
38860;DHT22;24609;48.316;16.174;2023-07-28T07:18:17;27.20;61.40
38860;DHT22;24609;48.316;16.174;2023-07-28T07:20:43;27.10;60.70
38860;DHT22;24609;48.316;16.174;2023-07-28T07:23:10;27.30;61.80
38860;DHT22;24609;48.316;16.174;2023-07-28T07:25:36;27.00;64.80
38860;DHT22;24609;48.316;16.174;2023-07-28T07:28:01;26.80;65.00
38860;DHT22;24609;48.316;16.174;2023-07-28T07:30:27;27.00;63.90
38860;DHT22;24609;48.316;16.174;2023-07-28T07:32:53;27.70;62.10
38860;DHT22;24609;48.316;16.174;2023-07-28T07:35:18;27.60;60.30
38860;DHT22;24609;48.316;16.174;2023-07-28T07:37:44;27.90;63.70
38860;DHT22;24609;48.316;16.174;2023-07-28T07:40:11;27.70;61.50
38860;DHT22;24609;48.316;16.174;2023-07-28T07:42:47;27.40;61.70
38860;DHT22;24609;48.316;16.174;2023-07-28T07:45:13;27.00;60.10
38860;DHT22;24609;48.316;16.174;2023-07-28T07:47:40;27.30;63.90
38860;DHT22;24609;48.316;16.174;2023-07-28T07:50:10;27.30;60.00
38860;DHT22;24609;48.316;16.174;2023-07-28T07:52:37;27.10;63.00
38860;DHT22;24609;48.316;16.174;2023-07-28T07:55:04;27.70;61.70
38860;DHT22;24609;48.316;16.174;2023-07-28T07:57:30;27.50;58.00
38860;DHT22;24609;48.316;16.174;2023-07-28T07:59:57;27.60;59.40
38860;DHT22;24609;48.316;16.174;2023-07-28T08:02:23;28.00;58.90
38860;DHT22;24609;48.316;16.174;2023-07-28T08:04:49;28.10;59.80
38860;DHT22;24609;48.316;16.174;2023-07-28T08:07:15;27.90;58.10
38860;DHT22;24609;48.316;16.174;2023-07-28T08:09:41;28.80;56.80
38860;DHT22;24609;48.316;16.174;2023-07-28T08:12:08;29.30;56.90
38860;DHT22;24609;48.316;16.174;2023-07-28T08:14:34;30.60;55.90
38860;DHT22;24609;48.316;16.174;2023-07-28T08:17:00;31.00;53.60
38860;DHT22;24609;48.316;16.174;2023-07-28T08:19:25;31.30;52.60
38860;DHT22;24609;48.316;16.174;2023-07-28T08:21:51;30.80;51.10
38860;DHT22;24609;48.316;16.174;2023-07-28T08:24:17;31.60;49.10
38860;DHT22;24609;48.316;16.174;2023-07-28T08:26:42;31.10;50.90
38860;DHT22;24609;48.316;16.174;2023-07-28T08:29:08;32.40;50.30
38860;DHT22;24609;48.316;16.174;2023-07-28T08:31:34;33.50;47.90
38860;DHT22;24609;48.316;16.174;2023-07-28T08:34:00;33.10;44.80
38860;DHT22;24609;48.316;16.174;2023-07-28T08:36:25;31.80;45.20
38860;DHT22;24609;48.316;16.174;2023-07-28T08:38:51;33.10;44.30
38860;DHT22;24609;48.316;16.174;2023-07-28T08:41:17;34.50;42.60
38860;DHT22;24609;48.316;16.174;2023-07-28T08:43:43;34.70;39.80
38860;DHT22;24609;48.316;16.174;2023-07-28T08:46:09;33.60;41.10
38860;DHT22;24609;48.316;16.174;2023-07-28T08:48:34;33.30;40.50
38860;DHT22;24609;48.316;16.174;2023-07-28T08:51:01;32.70;42.20
38860;DHT22;24609;48.316;16.174;2023-07-28T08:53:27;33.10;41.80
38860;DHT22;24609;48.316;16.174;2023-07-28T08:55:53;33.60;41.90
38860;DHT22;24609;48.316;16.174;2023-07-28T08:58:20;34.10;39.50
38860;DHT22;24609;48.316;16.174;2023-07-28T09:00:50;32.90;40.80
38860;DHT22;24609;48.316;16.174;2023-07-28T09:03:17;32.80;42.60
38860;DHT22;24609;48.316;16.174;2023-07-28T09:05:44;34.10;40.90
38860;DHT22;24609;48.316;16.174;2023-07-28T09:08:14;33.80;40.30
38860;DHT22;24609;48.316;16.174;2023-07-28T09:10:49;34.20;39.80
38860;DHT22;24609;48.316;16.174;2023-07-28T09:13:16;34.50;39.00
38860;DHT22;24609;48.316;16.174;2023-07-28T09:15:43;36.40;38.30
38860;DHT22;24609;48.316;16.174;2023-07-28T09:18:09;34.30;37.40
38860;DHT22;24609;48.316;16.174;2023-07-28T09:20:40;34.60;39.00
38860;DHT22;24609;48.316;16.174;2023-07-28T09:23:10;36.30;36.80
38860;DHT22;24609;48.316;16.174;2023-07-28T09:25:37;35.50;35.20
38860;DHT22;24609;48.316;16.174;2023-07-28T09:28:04;34.70;36.00
38860;DHT22;24609;48.316;16.174;2023-07-28T09:30:50;35.20;36.80
38860;DHT22;24609;48.316;16.174;2023-07-28T09:33:35;34.30;36.60
38860;DHT22;24609;48.316;16.174;2023-07-28T09:36:13;36.10;35.90
38860;DHT22;24609;48.316;16.174;2023-07-28T09:38:41;36.80;34.60
38860;DHT22;24609;48.316;16.174;2023-07-28T09:41:08;37.70;32.90
38860;DHT22;24609;48.316;16.174;2023-07-28T09:43:40;37.20;31.20
38860;DHT22;24609;48.316;16.174;2023-07-28T09:46:08;35.30;34.40
38860;DHT22;24609;48.316;16.174;2023-07-28T09:48:34;34.30;35.80
38860;DHT22;24609;48.316;16.174;2023-07-28T09:51:06;35.40;34.00
38860;DHT22;24609;48.316;16.174;2023-07-28T09:53:38;37.70;31.90
38860;DHT22;24609;48.316;16.174;2023-07-28T09:56:07;36.50;33.20
38860;DHT22;24609;48.316;16.174;2023-07-28T09:58:37;34.50;33.80
38860;DHT22;24609;48.316;16.174;2023-07-28T10:01:03;35.30;32.80
38860;DHT22;24609;48.316;16.174;2023-07-28T10:03:32;34.00;33.40
38860;DHT22;24609;48.316;16.174;2023-07-28T10:05:58;34.00;34.80
38860;DHT22;24609;48.316;16.174;2023-07-28T10:08:24;35.50;32.60
38860;DHT22;24609;48.316;16.174;2023-07-28T10:10:50;37.60;30.10
38860;DHT22;24609;48.316;16.174;2023-07-28T10:13:21;37.70;29.80
38860;DHT22;24609;48.316;16.174;2023-07-28T10:15:47;36.80;31.40
38860;DHT22;24609;48.316;16.174;2023-07-28T10:18:14;36.70;30.60
38860;DHT22;24609;48.316;16.174;2023-07-28T10:20:42;35.40;30.70
38860;DHT22;24609;48.316;16.174;2023-07-28T10:25:38;37.50;29.40
38860;DHT22;24609;48.316;16.174;2023-07-28T10:28:05;37.60;30.10
38860;DHT22;24609;48.316;16.174;2023-07-28T10:30:53;38.30;28.80
38860;DHT22;24609;48.316;16.174;2023-07-28T10:33:30;39.50;28.00
38860;DHT22;24609;48.316;16.174;2023-07-28T10:35:58;37.30;29.30
38860;DHT22;24609;48.316;16.174;2023-07-28T10:38:34;38.30;28.80
38860;DHT22;24609;48.316;16.174;2023-07-28T10:41:07;37.10;28.00
38860;DHT22;24609;48.316;16.174;2023-07-28T10:43:33;38.10;28.10
38860;DHT22;24609;48.316;16.174;2023-07-28T10:45:59;40.10;26.80
38860;DHT22;24609;48.316;16.174;2023-07-28T10:48:25;38.90;26.50
38860;DHT22;24609;48.316;16.174;2023-07-28T10:50:52;38.50;26.80
38860;DHT22;24609;48.316;16.174;2023-07-28T10:53:17;36.60;28.20
38860;DHT22;24609;48.316;16.174;2023-07-28T10:55:44;37.50;29.40
38860;DHT22;24609;48.316;16.174;2023-07-28T10:58:10;39.10;26.80
38860;DHT22;24609;48.316;16.174;2023-07-28T11:00:36;36.50;28.70
38860;DHT22;24609;48.316;16.174;2023-07-28T11:03:01;34.60;30.00
38860;DHT22;24609;48.316;16.174;2023-07-28T11:05:29;33.90;31.40
38860;DHT22;24609;48.316;16.174;2023-07-28T11:07:57;35.00;31.20
38860;DHT22;24609;48.316;16.174;2023-07-28T11:10:23;35.20;30.60
38860;DHT22;24609;48.316;16.174;2023-07-28T11:12:50;34.70;31.00
38860;DHT22;24609;48.316;16.174;2023-07-28T11:15:17;36.10;32.30
38860;DHT22;24609;48.316;16.174;2023-07-28T11:17:48;37.30;29.50
38860;DHT22;24609;48.316;16.174;2023-07-28T11:20:21;38.60;28.40
38860;DHT22;24609;48.316;16.174;2023-07-28T11:22:53;39.10;27.50
38860;DHT22;24609;48.316;16.174;2023-07-28T11:25:20;40.30;26.50
38860;DHT22;24609;48.316;16.174;2023-07-28T11:27:47;39.80;26.80
38860;DHT22;24609;48.316;16.174;2023-07-28T11:30:17;39.60;26.60
38860;DHT22;24609;48.316;16.174;2023-07-28T11:32:45;38.80;26.20
38860;DHT22;24609;48.316;16.174;2023-07-28T11:35:12;38.40;27.50
38860;DHT22;24609;48.316;16.174;2023-07-28T11:37:40;38.10;28.70
38860;DHT22;24609;48.316;16.174;2023-07-28T11:40:07;38.30;27.90
38860;DHT22;24609;48.316;16.174;2023-07-28T11:42:37;40.60;26.50
38860;DHT22;24609;48.316;16.174;2023-07-28T11:45:04;41.30;24.30
38860;DHT22;24609;48.316;16.174;2023-07-28T11:47:30;40.60;23.60
38860;DHT22;24609;48.316;16.174;2023-07-28T11:49:56;42.20;24.10
38860;DHT22;24609;48.316;16.174;2023-07-28T11:52:28;41.30;23.80
38860;DHT22;24609;48.316;16.174;2023-07-28T11:54:54;40.50;24.50
38860;DHT22;24609;48.316;16.174;2023-07-28T11:57:21;40.20;24.60
38860;DHT22;24609;48.316;16.174;2023-07-28T11:59:46;39.10;24.60
38860;DHT22;24609;48.316;16.174;2023-07-28T12:02:13;39.50;25.50
38860;DHT22;24609;48.316;16.174;2023-07-28T12:04:40;36.70;27.00
38860;DHT22;24609;48.316;16.174;2023-07-28T12:07:10;34.00;29.90
38860;DHT22;24609;48.316;16.174;2023-07-28T12:12:15;30.70;35.80
38860;DHT22;24609;48.316;16.174;2023-07-28T12:14:42;30.10;37.20
38860;DHT22;24609;48.316;16.174;2023-07-28T12:17:14;29.40;38.90
38860;DHT22;24609;48.316;16.174;2023-07-28T12:19:59;28.90;39.60
38860;DHT22;24609;48.316;16.174;2023-07-28T12:22:26;28.60;41.40
38860;DHT22;24609;48.316;16.174;2023-07-28T12:24:56;28.20;43.00
38860;DHT22;24609;48.316;16.174;2023-07-28T12:27:22;27.90;43.40
38860;DHT22;24609;48.316;16.174;2023-07-28T12:29:50;27.80;44.30
38860;DHT22;24609;48.316;16.174;2023-07-28T12:32:16;27.60;44.80
38860;DHT22;24609;48.316;16.174;2023-07-28T12:34:42;27.50;46.00
38860;DHT22;24609;48.316;16.174;2023-07-28T12:37:08;27.60;46.10
38860;DHT22;24609;48.316;16.174;2023-07-28T12:39:36;27.60;47.10
38860;DHT22;24609;48.316;16.174;2023-07-28T12:42:08;27.40;47.30
38860;DHT22;24609;48.316;16.174;2023-07-28T12:44:35;27.30;47.90
38860;DHT22;24609;48.316;16.174;2023-07-28T12:47:00;27.30;48.10
38860;DHT22;24609;48.316;16.174;2023-07-28T12:49:27;27.20;48.20
38860;DHT22;24609;48.316;16.174;2023-07-28T12:51:58;27.30;48.90
38860;DHT22;24609;48.316;16.174;2023-07-28T12:54:24;27.50;48.20
38860;DHT22;24609;48.316;16.174;2023-07-28T12:56:50;27.60;48.10
38860;DHT22;24609;48.316;16.174;2023-07-28T12:59:16;27.30;47.70
38860;DHT22;24609;48.316;16.174;2023-07-28T13:01:42;27.20;48.40
38860;DHT22;24609;48.316;16.174;2023-07-28T13:04:07;27.10;49.00
38860;DHT22;24609;48.316;16.174;2023-07-28T13:06:33;27.00;47.90
38860;DHT22;24609;48.316;16.174;2023-07-28T13:08:59;26.70;48.60
38860;DHT22;24609;48.316;16.174;2023-07-28T13:11:25;26.60;49.40
38860;DHT22;24609;48.316;16.174;2023-07-28T13:13:51;26.40;49.50
38860;DHT22;24609;48.316;16.174;2023-07-28T13:16:16;26.30;50.60
38860;DHT22;24609;48.316;16.174;2023-07-28T13:18:43;26.30;50.90
38860;DHT22;24609;48.316;16.174;2023-07-28T13:21:09;26.50;50.70
38860;DHT22;24609;48.316;16.174;2023-07-28T13:23:38;26.60;51.00
38860;DHT22;24609;48.316;16.174;2023-07-28T13:26:04;26.80;51.30
38860;DHT22;24609;48.316;16.174;2023-07-28T13:28:30;26.90;52.00
38860;DHT22;24609;48.316;16.174;2023-07-28T13:30:56;27.30;52.40
38860;DHT22;24609;48.316;16.174;2023-07-28T13:33:21;27.20;52.50
38860;DHT22;24609;48.316;16.174;2023-07-28T13:35:47;27.30;52.60
38860;DHT22;24609;48.316;16.174;2023-07-28T13:38:13;27.90;52.40
38860;DHT22;24609;48.316;16.174;2023-07-28T13:40:38;29.10;50.70
38860;DHT22;24609;48.316;16.174;2023-07-28T13:43:04;29.20;50.00
38860;DHT22;24609;48.316;16.174;2023-07-28T13:45:30;28.80;50.70
38860;DHT22;24609;48.316;16.174;2023-07-28T13:47:56;28.40;52.20
38860;DHT22;24609;48.316;16.174;2023-07-28T13:50:21;28.40;53.10
38860;DHT22;24609;48.316;16.174;2023-07-28T13:52:47;27.90;53.30
38860;DHT22;24609;48.316;16.174;2023-07-28T13:55:13;27.80;54.50
38860;DHT22;24609;48.316;16.174;2023-07-28T13:57:39;27.70;54.60
38860;DHT22;24609;48.316;16.174;2023-07-28T14:00:06;27.40;55.20
38860;DHT22;24609;48.316;16.174;2023-07-28T14:02:36;27.30;56.20
38860;DHT22;24609;48.316;16.174;2023-07-28T14:05:02;27.10;55.90
38860;DHT22;24609;48.316;16.174;2023-07-28T14:07:28;27.00;56.10
38860;DHT22;24609;48.316;16.174;2023-07-28T14:09:53;27.20;56.60
38860;DHT22;24609;48.316;16.174;2023-07-28T14:12:19;27.10;56.00
38860;DHT22;24609;48.316;16.174;2023-07-28T14:14:45;27.20;56.50
38860;DHT22;24609;48.316;16.174;2023-07-28T14:17:11;27.30;57.10
38860;DHT22;24609;48.316;16.174;2023-07-28T14:19:39;27.40;56.70
38860;DHT22;24609;48.316;16.174;2023-07-28T14:22:05;27.30;57.00
38860;DHT22;24609;48.316;16.174;2023-07-28T14:24:31;27.20;58.20
38860;DHT22;24609;48.316;16.174;2023-07-28T14:26:57;27.40;58.90
38860;DHT22;24609;48.316;16.174;2023-07-28T14:29:22;27.40;58.00
38860;DHT22;24609;48.316;16.174;2023-07-28T14:31:48;27.50;58.60
38860;DHT22;24609;48.316;16.174;2023-07-28T14:34:14;27.70;58.90
38860;DHT22;24609;48.316;16.174;2023-07-28T14:36:40;28.10;58.50
38860;DHT22;24609;48.316;16.174;2023-07-28T14:39:06;28.30;56.90
38860;DHT22;24609;48.316;16.174;2023-07-28T14:41:32;28.30;56.70
38860;DHT22;24609;48.316;16.174;2023-07-28T14:43:58;28.10;57.10
38860;DHT22;24609;48.316;16.174;2023-07-28T14:46:23;28.50;56.70
38860;DHT22;24609;48.316;16.174;2023-07-28T14:48:51;28.80;54.80
38860;DHT22;24609;48.316;16.174;2023-07-28T14:51:17;28.80;54.30
38860;DHT22;24609;48.316;16.174;2023-07-28T14:53:43;28.90;53.60
38860;DHT22;24609;48.316;16.174;2023-07-28T14:56:11;31.40;49.10
38860;DHT22;24609;48.316;16.174;2023-07-28T14:58:36;33.60;45.40
38860;DHT22;24609;48.316;16.174;2023-07-28T15:01:02;32.50;45.40
38860;DHT22;24609;48.316;16.174;2023-07-28T15:03:30;31.00;47.10
38860;DHT22;24609;48.316;16.174;2023-07-28T15:05:56;29.60;49.00
38860;DHT22;24609;48.316;16.174;2023-07-28T15:08:22;28.80;51.50
38860;DHT22;24609;48.316;16.174;2023-07-28T15:10:48;28.20;52.90
38860;DHT22;24609;48.316;16.174;2023-07-28T15:13:13;28.40;53.20
38860;DHT22;24609;48.316;16.174;2023-07-28T15:15:39;28.30;53.20
38860;DHT22;24609;48.316;16.174;2023-07-28T15:18:05;28.00;55.00
38860;DHT22;24609;48.316;16.174;2023-07-28T15:20:31;27.70;55.00